createdAt,value
2018-10-12T00:02:08.908Z,16.17
2018-10-12T00:06:13.954Z,16.15
2018-10-12T00:10:19.005Z,16.14
2018-10-12T00:14:24.022Z,16.06
2018-10-12T00:18:29.084Z,16.08
2018-10-12T00:22:34.142Z,16.06
2018-10-12T00:26:39.441Z,15.94
2018-10-12T00:30:44.751Z,15.97
2018-10-12T00:34:49.847Z,15.90
2018-10-12T00:38:54.960Z,15.95
2018-10-12T00:42:59.985Z,15.91
2018-10-12T00:47:05.017Z,15.79
2018-10-12T00:51:10.054Z,15.82
2018-10-12T00:55:15.081Z,15.83
2018-10-12T00:59:20.117Z,15.83
2018-10-12T01:03:25.141Z,15.82
2018-10-12T01:07:30.185Z,15.70
2018-10-12T01:11:35.251Z,15.74
2018-10-12T01:15:40.284Z,15.68
2018-10-12T01:19:45.342Z,15.72
2018-10-12T01:23:50.387Z,15.57
2018-10-12T01:27:55.452Z,15.53
2018-10-12T01:32:00.500Z,15.43
2018-10-12T01:36:05.615Z,15.35
2018-10-12T01:40:11.552Z,15.30
2018-10-12T01:44:16.618Z,15.22
2018-10-12T01:48:21.677Z,15.07
2018-10-12T01:52:26.758Z,14.86
2018-10-12T01:56:31.802Z,14.88
2018-10-12T02:00:36.838Z,14.81
2018-10-12T02:04:41.877Z,14.66
2018-10-12T02:08:46.929Z,14.69
2018-10-12T02:12:51.981Z,14.73
2018-10-12T02:16:57.027Z,14.33
2018-10-12T02:21:02.527Z,14.33
2018-10-12T02:25:07.924Z,14.23
2018-10-12T02:29:13.019Z,14.21
2018-10-12T02:33:18.053Z,14.19
2018-10-12T02:37:23.062Z,14.25
2018-10-12T02:41:29.219Z,14.16
2018-10-12T02:45:34.226Z,14.28
2018-10-12T02:49:39.255Z,14.17
2018-10-12T02:53:44.301Z,14.17
2018-10-12T02:57:49.319Z,14.05
2018-10-12T03:01:54.338Z,13.95
2018-10-12T03:05:59.474Z,13.90
2018-10-12T03:10:04.537Z,13.88
2018-10-12T03:14:09.573Z,13.92
2018-10-12T03:18:14.599Z,13.80
2018-10-12T03:22:19.646Z,13.84
2018-10-12T03:26:24.709Z,13.78
2018-10-12T03:30:29.767Z,13.82
2018-10-12T03:34:34.929Z,13.76
2018-10-12T03:38:40.006Z,13.82
2018-10-12T03:42:45.057Z,13.62
2018-10-12T03:46:50.101Z,13.54
2018-10-12T03:50:55.164Z,13.57
2018-10-12T03:55:00.205Z,13.57
2018-10-12T03:59:05.254Z,13.56
2018-10-12T04:03:10.328Z,13.68
2018-10-12T04:07:15.403Z,13.66
2018-10-12T04:11:20.469Z,13.59
2018-10-12T04:15:25.541Z,13.66
2018-10-12T04:19:30.590Z,13.55
2018-10-12T04:23:35.657Z,13.57
2018-10-12T04:27:40.713Z,13.56
2018-10-12T04:31:45.743Z,13.57
2018-10-12T04:35:50.753Z,13.52
2018-10-12T04:40:20.543Z,13.36
2018-10-12T04:44:25.659Z,13.44
2018-10-12T04:48:30.774Z,13.52
2018-10-12T04:52:35.837Z,13.55
2018-10-12T04:56:41.142Z,13.56
2018-10-12T05:00:46.423Z,13.55
2018-10-12T05:04:51.538Z,13.62
2018-10-12T05:08:56.671Z,13.71
2018-10-12T05:13:01.854Z,13.76
2018-10-12T05:17:08.935Z,13.77
2018-10-12T05:21:14.030Z,14.03
2018-10-12T05:25:19.089Z,13.72
2018-10-12T05:29:24.154Z,13.83
2018-10-12T05:33:29.193Z,13.73
2018-10-12T05:37:34.205Z,13.64
2018-10-12T05:41:39.270Z,13.65
2018-10-12T05:45:44.551Z,13.46
2018-10-12T05:50:00.487Z,13.25
2018-10-12T05:54:05.927Z,13.23
2018-10-12T05:58:11.045Z,13.56
2018-10-12T06:02:16.069Z,13.55
2018-10-12T06:06:21.444Z,13.86
2018-10-12T06:10:28.505Z,14.04
2018-10-12T06:14:33.537Z,13.87
2018-10-12T06:18:38.597Z,13.74
2018-10-12T06:22:43.636Z,13.51
2018-10-12T06:26:48.796Z,13.44
2018-10-12T06:30:53.775Z,13.46
2018-10-12T06:34:58.838Z,13.59
2018-10-12T06:39:04.791Z,13.85
2018-10-12T06:43:09.865Z,13.84
2018-10-12T06:47:14.961Z,13.71
2018-10-12T06:51:20.939Z,13.67
2018-10-12T06:55:25.985Z,13.63
2018-10-12T06:59:31.042Z,13.91
2018-10-12T07:03:36.102Z,14.14
2018-10-12T07:07:41.146Z,14.24
2018-10-12T07:11:46.190Z,14.48
2018-10-12T07:15:51.266Z,14.76
2018-10-12T07:19:56.343Z,14.99
2018-10-12T07:24:01.409Z,15.17
2018-10-12T07:28:06.525Z,15.44
2018-10-12T07:32:11.534Z,15.66
2018-10-12T07:36:16.584Z,15.89
2018-10-12T07:40:21.609Z,16.32
2018-10-12T07:44:26.790Z,16.63
2018-10-12T07:48:31.830Z,17.06
2018-10-12T07:52:36.880Z,17.52
2018-10-12T07:56:41.919Z,17.89
2018-10-12T08:00:47.082Z,18.61
2018-10-12T08:04:52.240Z,18.74
2018-10-12T08:08:57.298Z,18.95
2018-10-12T08:13:02.377Z,19.75
2018-10-12T08:17:08.127Z,19.60
2018-10-12T08:21:13.513Z,20.54
2018-10-12T08:25:18.708Z,19.39
2018-10-12T08:29:25.950Z,20.69
2018-10-12T08:33:31.034Z,21.84
2018-10-12T08:37:38.105Z,21.18
2018-10-12T08:41:43.220Z,21.37
2018-10-12T08:45:48.291Z,21.72
2018-10-12T08:49:53.301Z,21.55
2018-10-12T08:53:58.345Z,21.75
2018-10-12T08:58:03.371Z,21.62
2018-10-12T09:02:08.558Z,21.35
2018-10-12T09:06:13.907Z,20.92
2018-10-12T09:10:18.993Z,20.95
2018-10-12T09:14:24.082Z,20.91
2018-10-12T09:18:29.132Z,20.82
2018-10-12T09:22:34.250Z,20.32
2018-10-12T09:26:39.323Z,20.62
2018-10-12T09:30:44.377Z,20.94
2018-10-12T09:34:49.455Z,20.73
2018-10-12T09:38:54.523Z,20.52
2018-10-12T09:42:59.581Z,20.74
2018-10-12T09:47:04.645Z,20.96
2018-10-12T09:51:09.793Z,21.09
2018-10-12T09:55:14.839Z,21.14
2018-10-12T09:59:19.880Z,21.05
2018-10-12T10:03:30.143Z,21.12
2018-10-12T10:07:35.289Z,21.44
2018-10-12T10:11:40.205Z,21.74
2018-10-12T10:15:45.238Z,21.84
2018-10-12T10:19:50.299Z,21.88
2018-10-12T10:23:55.360Z,22.02
2018-10-12T10:28:00.427Z,22.06
2018-10-12T10:32:05.513Z,22.02
2018-10-12T10:36:10.562Z,22.11
2018-10-12T10:40:15.803Z,22.29
2018-10-12T10:44:20.856Z,22.43
2018-10-12T10:48:25.955Z,22.58
2018-10-12T10:52:30.998Z,22.57
2018-10-12T10:56:36.053Z,22.56
2018-10-12T11:00:41.256Z,22.81
2018-10-12T11:04:46.285Z,22.81
2018-10-12T11:08:51.329Z,22.79
2018-10-12T11:12:56.467Z,23.01
2018-10-12T11:17:01.437Z,23.06
2018-10-12T11:21:07.310Z,23.12
2018-10-12T11:25:12.357Z,23.38
2018-10-12T11:29:17.417Z,24.04
2018-10-12T11:33:23.335Z,24.64
2018-10-12T11:41:45.763Z,26.11
2018-10-12T11:45:50.821Z,26.42
2018-10-12T11:49:55.861Z,27.25
2018-10-12T11:54:00.967Z,27.54
2018-10-12T11:58:06.314Z,27.11
2018-10-12T12:02:11.403Z,28.02
2018-10-12T12:06:16.418Z,27.31
2018-10-12T12:10:21.503Z,28.21
2018-10-12T12:14:26.898Z,27.69
2018-10-12T12:18:31.985Z,28.61
2018-10-12T12:22:37.045Z,28.88
2018-10-12T12:26:42.114Z,28.70
2018-10-12T12:30:48.250Z,29.09
2018-10-12T12:34:53.378Z,29.36
2018-10-12T12:38:58.408Z,29.52
2018-10-12T12:43:03.487Z,29.71
2018-10-12T12:47:08.555Z,29.56
2018-10-12T12:51:14.067Z,29.61
2018-10-12T12:55:19.130Z,29.03
2018-10-12T12:59:24.191Z,28.98
2018-10-12T13:03:29.261Z,30.20
2018-10-12T13:07:34.390Z,29.73
2018-10-12T13:11:39.426Z,29.45
2018-10-12T13:15:44.575Z,29.27
2018-10-12T13:19:49.711Z,29.76
2018-10-12T13:23:54.937Z,29.18
2018-10-12T13:28:00.093Z,29.01
2018-10-12T13:32:05.457Z,28.73
2018-10-12T13:36:10.436Z,29.15
2018-10-12T13:40:15.511Z,28.72
2018-10-12T13:44:20.589Z,28.28
2018-10-12T13:48:25.667Z,28.07
2018-10-12T13:52:30.756Z,28.04
2018-10-12T13:56:35.841Z,27.08
2018-10-12T14:00:40.899Z,27.28
2018-10-12T14:04:45.987Z,26.93
2018-10-12T14:08:51.057Z,26.80
2018-10-12T14:12:56.090Z,26.63
2018-10-12T14:17:01.163Z,26.43
2018-10-12T14:21:06.311Z,26.43
2018-10-12T14:25:11.510Z,26.45
2018-10-12T14:29:16.502Z,26.21
2018-10-12T14:33:21.563Z,26.08
2018-10-12T14:37:26.651Z,25.84
2018-10-12T14:41:31.754Z,25.94
2018-10-12T14:45:37.064Z,25.95
2018-10-12T14:49:42.330Z,25.79
2018-10-12T14:53:47.659Z,25.72
2018-10-12T14:57:52.894Z,25.74
2018-10-12T15:01:58.856Z,25.84
2018-10-12T15:06:04.193Z,25.88
2018-10-12T15:10:09.808Z,25.72
2018-10-12T15:14:14.947Z,25.62
2018-10-12T15:18:20.105Z,25.60
2018-10-12T15:22:25.295Z,25.48
2018-10-12T15:26:30.671Z,25.41
2018-10-12T15:30:36.027Z,25.35
2018-10-12T15:34:41.569Z,25.40
2018-10-12T15:38:48.272Z,25.30
2018-10-12T15:42:53.627Z,25.16
2018-10-12T15:46:58.827Z,25.03
2018-10-12T15:51:05.328Z,24.93
2018-10-12T15:55:11.467Z,24.88
2018-10-12T15:59:17.240Z,24.78
2018-10-12T16:03:22.698Z,24.73
2018-10-12T16:07:28.031Z,24.65
2018-10-12T16:11:33.438Z,24.55
2018-10-12T16:15:38.783Z,24.49
2018-10-12T16:19:43.918Z,24.27
2018-10-12T16:23:51.639Z,24.25
2018-10-12T16:27:56.714Z,24.19
2018-10-12T16:32:01.759Z,24.10
2018-10-12T16:36:06.833Z,23.98
2018-10-12T16:40:12.817Z,23.84
2018-10-12T16:44:18.100Z,23.75
2018-10-12T16:48:23.408Z,23.66
2018-10-12T16:52:28.540Z,23.60
2018-10-12T16:56:33.766Z,23.46
2018-10-12T17:00:39.103Z,23.32
2018-10-12T17:04:45.086Z,23.20
2018-10-12T17:08:50.208Z,22.93
2018-10-12T17:12:55.291Z,22.72
2018-10-12T17:17:00.417Z,22.69
2018-10-12T17:21:05.470Z,22.57
2018-10-12T17:25:10.537Z,22.50
2018-10-12T17:29:15.570Z,22.42
2018-10-12T17:33:20.674Z,22.29
2018-10-12T17:37:25.783Z,22.11
2018-10-12T17:41:30.862Z,22.07
2018-10-12T17:45:35.935Z,21.75
2018-10-12T17:49:41.152Z,21.76
2018-10-12T17:53:46.285Z,21.73
2018-10-12T17:57:51.475Z,21.61
2018-10-12T18:01:56.896Z,21.45
2018-10-12T18:06:03.145Z,21.32
2018-10-12T18:10:10.034Z,21.24
2018-10-12T18:14:15.429Z,21.02
2018-10-12T18:18:20.706Z,20.94
2018-10-12T18:22:25.900Z,20.89
2018-10-12T18:26:31.176Z,20.82
2018-10-12T18:30:36.436Z,20.67
2018-10-12T18:34:41.567Z,20.66
2018-10-12T18:38:46.802Z,20.65
2018-10-12T18:42:51.932Z,20.56
2018-10-12T18:46:56.966Z,20.51
2018-10-12T18:51:02.099Z,20.47
2018-10-12T18:55:07.185Z,20.36
2018-10-12T18:59:12.290Z,20.45
2018-10-12T19:03:17.374Z,20.40
2018-10-12T19:07:22.687Z,20.38
2018-10-12T19:11:27.814Z,20.34
2018-10-12T19:15:33.030Z,20.27
2018-10-12T19:19:38.177Z,20.26
2018-10-12T19:23:43.238Z,20.18
2018-10-12T19:27:48.211Z,19.91
2018-10-12T19:31:53.396Z,19.66
2018-10-12T19:35:58.415Z,19.66
2018-10-12T19:40:03.459Z,19.56
2018-10-12T19:44:09.385Z,19.54
2018-10-12T19:48:14.613Z,19.61
2018-10-12T19:52:19.705Z,19.50
2018-10-12T19:56:24.947Z,19.31
2018-10-12T20:00:29.998Z,19.35
2018-10-12T20:04:35.127Z,19.29
2018-10-12T20:08:40.251Z,19.30
2018-10-12T20:12:45.350Z,19.19
2018-10-12T20:16:50.438Z,19.14
2018-10-12T20:20:55.502Z,19.10
2018-10-12T20:25:00.594Z,19.05
2018-10-12T20:29:05.756Z,18.95
2018-10-12T20:33:10.789Z,18.92
2018-10-12T20:37:15.802Z,18.74
2018-10-12T20:41:20.834Z,18.68
2018-10-12T20:45:25.888Z,18.56
2018-10-12T20:49:30.925Z,18.46
2018-10-12T20:53:35.971Z,18.38
2018-10-12T20:57:47.998Z,18.31
2018-10-12T21:01:53.059Z,18.23
2018-10-12T21:05:58.156Z,18.21
2018-10-12T21:10:03.254Z,18.28
2018-10-12T21:14:08.349Z,18.21
2018-10-12T21:18:13.386Z,18.16
2018-10-12T21:22:18.463Z,18.11
2018-10-12T21:26:23.518Z,18.08
2018-10-12T21:30:28.806Z,18.03
2018-10-12T21:34:33.913Z,18.01
2018-10-12T21:38:39.044Z,17.96
2018-10-12T21:42:44.098Z,17.88
2018-10-12T21:46:49.311Z,17.75
2018-10-12T21:50:55.392Z,17.69
2018-10-12T21:55:00.447Z,17.61
2018-10-12T21:59:05.530Z,17.63
2018-10-12T22:03:10.609Z,17.45
2018-10-12T22:07:15.750Z,17.35
2018-10-12T22:11:20.829Z,17.31
2018-10-12T22:15:25.866Z,17.29
2018-10-12T22:19:30.930Z,17.26
2018-10-12T22:23:36.376Z,17.20
2018-10-12T22:27:41.469Z,17.12
2018-10-12T22:31:46.540Z,17.10
2018-10-12T22:35:51.644Z,17.05
2018-10-12T22:39:56.794Z,17.04
2018-10-12T22:44:01.983Z,16.95
2018-10-12T22:48:07.172Z,16.96
2018-10-12T22:52:12.287Z,16.93
2018-10-12T22:56:17.398Z,16.92
2018-10-12T23:00:22.560Z,16.83
2018-10-12T23:04:27.739Z,16.80
2018-10-12T23:08:32.894Z,16.81
2018-10-12T23:12:38.043Z,16.75
2018-10-12T23:16:43.158Z,16.60
2018-10-12T23:20:49.303Z,16.60
2018-10-12T23:24:54.363Z,16.61
2018-10-12T23:28:59.703Z,16.76
2018-10-12T23:33:21.870Z,16.65
2018-10-12T23:37:26.937Z,16.52
2018-10-12T23:41:31.963Z,16.43
2018-10-12T23:45:36.996Z,16.43
2018-10-12T23:49:42.056Z,16.41
2018-10-12T23:53:47.087Z,16.40
2018-10-12T23:57:52.164Z,16.41
